Zealand Delilah — PBZI — position and weather

sailwx.info

Track history (hours):
 
Tides and Currents Weather Stations Pressure Air Temp Water Temp Dewpoint Dewpoint Depression Visibility Wind Speed Wind Dir Waves Ship Positions

Zealand Delilah

Last reported at 2016-Aug-29 22:33 UTC. Time now 2016-Aug-30 20:46 UTC.
Position N 36°26' E 023°13'.

Length 135 m; draft 8.9 m.

Type: Ship. MMSI: 245935000.

Date/timePositionNaut miles runAvg speedWind from/ knotsBaromVisibWave heightAir tempDewpointWater temp
2016-Aug-29 22:33N 36°26' E 023°13'1210.8
2016-Aug-29 21:29N 36°36' E 023°21'1010.2
2016-Aug-29 20:33N 36°44' E 023°27'1010.2
2016-Aug-29 19:33N 36°52' E 023°34'1010.4
2016-Aug-29 18:33N 37°01' E 023°41'1010.0
2016-Aug-29 17:33N 37°09' E 023°48'10 9.6
2016-Aug-29 16:33N 37°18' E 023°54'1010.1
2016-Aug-29 15:33N 37°26' E 024°01'2210.2
2016-Aug-29 13:25N 37°44' E 024°16'278 9.6
2016-Aug-28 08:28N 40°44' E 028°50'910.2
2016-Aug-28 07:33N 40°44' E 029°02'1010.4
2016-Aug-28 06:33N 40°45' E 029°16'1110.4
2016-Aug-28 05:30N 40°45' E 029°30'  
2016-Aug-21 19:33N 40°44' E 029°25'1111.5
2016-Aug-21 18:33N 40°44' E 029°10'28510.1
2016-Aug-20 14:11N 37°39' E 024°29'  
Track history (hours):
 
Tides and Currents Weather Stations Pressure Air Temp Water Temp Dewpoint Dewpoint Depression Visibility Wind Speed Wind Dir Waves Ship Positions

Zealand Delilah

Last reported at 2016-Aug-29 22:33 UTC. Time now 2016-Aug-30 20:46 UTC.
Position N 36°26' E 023°13'.

Length 135 m; draft 8.9 m.

Type: Ship. MMSI: 245935000.

Date/timePositionNaut miles runAvg speedWind from/ knotsBaromVisibWave heightAir tempDewpointWater temp
2016-Aug-29 22:33N 36°26' E 023°13'1210.8
2016-Aug-29 21:29N 36°36' E 023°21'1010.2
2016-Aug-29 20:33N 36°44' E 023°27'1010.2
2016-Aug-29 19:33N 36°52' E 023°34'1010.4
2016-Aug-29 18:33N 37°01' E 023°41'1010.0
2016-Aug-29 17:33N 37°09' E 023°48'10 9.6
2016-Aug-29 16:33N 37°18' E 023°54'1010.1
2016-Aug-29 15:33N 37°26' E 024°01'2210.2
2016-Aug-29 13:25N 37°44' E 024°16'278 9.6
2016-Aug-28 08:28N 40°44' E 028°50'910.2
2016-Aug-28 07:33N 40°44' E 029°02'1010.4
2016-Aug-28 06:33N 40°45' E 029°16'1110.4
2016-Aug-28 05:30N 40°45' E 029°30'  
2016-Aug-21 19:33N 40°44' E 029°25'1111.5
2016-Aug-21 18:33N 40°44' E 029°10'28510.1
2016-Aug-20 14:11N 37°39' E 024°29'  

Dump ship's entire track history